sensor_id;sensor_type;location;lat;lon;timestamp;P1;durP1;ratioP1;P2;durP2;ratioP2
18883;SDS011;9574;47.282;9.640;2023-01-26T00:01:53;15.90;;;6.57;;
18883;SDS011;9574;47.282;9.640;2023-01-26T00:04:20;14.03;;;6.27;;
18883;SDS011;9574;47.282;9.640;2023-01-26T00:06:47;15.30;;;5.47;;
18883;SDS011;9574;47.282;9.640;2023-01-26T00:09:14;11.43;;;5.40;;
18883;SDS011;9574;47.282;9.640;2023-01-26T00:11:41;12.40;;;6.07;;
18883;SDS011;9574;47.282;9.640;2023-01-26T00:14:08;13.00;;;6.20;;
18883;SDS011;9574;47.282;9.640;2023-01-26T00:16:37;13.20;;;5.70;;
18883;SDS011;9574;47.282;9.640;2023-01-26T00:19:04;15.17;;;6.07;;
18883;SDS011;9574;47.282;9.640;2023-01-26T00:21:31;12.93;;;6.57;;
18883;SDS011;9574;47.282;9.640;2023-01-26T00:23:58;12.80;;;5.67;;
18883;SDS011;9574;47.282;9.640;2023-01-26T00:26:25;14.40;;;6.73;;
18883;SDS011;9574;47.282;9.640;2023-01-26T00:28:53;16.27;;;6.63;;
18883;SDS011;9574;47.282;9.640;2023-01-26T00:31:21;16.67;;;6.10;;
18883;SDS011;9574;47.282;9.640;2023-01-26T00:33:51;14.80;;;7.03;;
18883;SDS011;9574;47.282;9.640;2023-01-26T00:36:19;15.33;;;6.30;;
18883;SDS011;9574;47.282;9.640;2023-01-26T00:38:46;14.27;;;5.90;;
18883;SDS011;9574;47.282;9.640;2023-01-26T00:41:13;16.83;;;6.63;;
18883;SDS011;9574;47.282;9.640;2023-01-26T00:43:54;15.87;;;6.67;;
18883;SDS011;9574;47.282;9.640;2023-01-26T00:46:21;15.50;;;6.83;;
18883;SDS011;9574;47.282;9.640;2023-01-26T00:48:48;11.33;;;6.10;;
18883;SDS011;9574;47.282;9.640;2023-01-26T00:51:16;17.67;;;7.10;;
18883;SDS011;9574;47.282;9.640;2023-01-26T00:53:44;16.03;;;7.07;;
18883;SDS011;9574;47.282;9.640;2023-01-26T00:56:10;12.93;;;5.93;;
18883;SDS011;9574;47.282;9.640;2023-01-26T00:58:38;14.40;;;6.03;;
18883;SDS011;9574;47.282;9.640;2023-01-26T01:01:06;16.60;;;7.00;;
18883;SDS011;9574;47.282;9.640;2023-01-26T01:03:33;17.07;;;6.87;;
18883;SDS011;9574;47.282;9.640;2023-01-26T01:06:00;16.07;;;6.67;;
18883;SDS011;9574;47.282;9.640;2023-01-26T01:08:29;13.87;;;6.60;;
18883;SDS011;9574;47.282;9.640;2023-01-26T01:11:01;13.63;;;6.13;;
18883;SDS011;9574;47.282;9.640;2023-01-26T01:13:30;12.77;;;5.77;;
18883;SDS011;9574;47.282;9.640;2023-01-26T01:15:57;17.83;;;6.20;;
18883;SDS011;9574;47.282;9.640;2023-01-26T01:18:24;17.53;;;7.17;;
18883;SDS011;9574;47.282;9.640;2023-01-26T01:20:51;16.97;;;6.90;;
18883;SDS011;9574;47.282;9.640;2023-01-26T01:23:18;12.83;;;6.37;;
18883;SDS011;9574;47.282;9.640;2023-01-26T01:25:46;13.07;;;5.97;;
18883;SDS011;9574;47.282;9.640;2023-01-26T01:28:21;14.33;;;7.17;;
18883;SDS011;9574;47.282;9.640;2023-01-26T01:30:48;17.57;;;7.10;;
18883;SDS011;9574;47.282;9.640;2023-01-26T01:33:15;14.40;;;6.97;;
18883;SDS011;9574;47.282;9.640;2023-01-26T01:35:42;11.93;;;6.20;;
18883;SDS011;9574;47.282;9.640;2023-01-26T01:38:09;14.47;;;6.37;;
18883;SDS011;9574;47.282;9.640;2023-01-26T01:40:41;11.50;;;5.33;;
18883;SDS011;9574;47.282;9.640;2023-01-26T01:43:10;11.03;;;5.27;;
18883;SDS011;9574;47.282;9.640;2023-01-26T01:45:41;14.33;;;6.40;;
18883;SDS011;9574;47.282;9.640;2023-01-26T01:48:12;15.13;;;5.80;;
18883;SDS011;9574;47.282;9.640;2023-01-26T01:50:45;15.57;;;6.33;;
18883;SDS011;9574;47.282;9.640;2023-01-26T01:53:16;11.67;;;6.10;;
18883;SDS011;9574;47.282;9.640;2023-01-26T01:55:49;15.33;;;6.53;;
18883;SDS011;9574;47.282;9.640;2023-01-26T01:58:19;14.13;;;6.13;;
18883;SDS011;9574;47.282;9.640;2023-01-26T02:00:47;16.90;;;6.40;;
18883;SDS011;9574;47.282;9.640;2023-01-26T02:03:14;13.03;;;5.90;;
18883;SDS011;9574;47.282;9.640;2023-01-26T02:05:48;11.10;;;5.93;;
18883;SDS011;9574;47.282;9.640;2023-01-26T02:08:20;14.63;;;5.13;;
18883;SDS011;9574;47.282;9.640;2023-01-26T02:10:51;18.37;;;6.57;;
18883;SDS011;9574;47.282;9.640;2023-01-26T02:13:21;14.50;;;5.73;;
18883;SDS011;9574;47.282;9.640;2023-01-26T02:15:50;15.80;;;5.93;;
18883;SDS011;9574;47.282;9.640;2023-01-26T02:18:17;14.77;;;6.73;;
18883;SDS011;9574;47.282;9.640;2023-01-26T02:20:44;16.00;;;6.37;;
18883;SDS011;9574;47.282;9.640;2023-01-26T02:23:26;14.60;;;6.33;;
18883;SDS011;9574;47.282;9.640;2023-01-26T02:26:11;8.63;;;4.80;;
18883;SDS011;9574;47.282;9.640;2023-01-26T02:28:40;14.03;;;6.33;;
18883;SDS011;9574;47.282;9.640;2023-01-26T02:31:09;15.83;;;5.83;;
18883;SDS011;9574;47.282;9.640;2023-01-26T02:33:37;14.73;;;6.10;;
18883;SDS011;9574;47.282;9.640;2023-01-26T02:36:05;15.23;;;6.70;;
18883;SDS011;9574;47.282;9.640;2023-01-26T02:38:38;17.03;;;7.27;;
18883;SDS011;9574;47.282;9.640;2023-01-26T02:41:07;15.03;;;6.70;;
18883;SDS011;9574;47.282;9.640;2023-01-26T02:43:38;18.23;;;7.07;;
18883;SDS011;9574;47.282;9.640;2023-01-26T02:46:05;15.17;;;5.97;;
18883;SDS011;9574;47.282;9.640;2023-01-26T02:48:31;13.03;;;5.70;;
18883;SDS011;9574;47.282;9.640;2023-01-26T02:51:16;14.90;;;6.27;;
18883;SDS011;9574;47.282;9.640;2023-01-26T02:53:43;17.27;;;6.77;;
18883;SDS011;9574;47.282;9.640;2023-01-26T02:56:10;11.33;;;5.60;;
18883;SDS011;9574;47.282;9.640;2023-01-26T02:58:37;11.90;;;5.50;;
18883;SDS011;9574;47.282;9.640;2023-01-26T03:01:04;13.80;;;5.70;;
18883;SDS011;9574;47.282;9.640;2023-01-26T03:03:31;13.90;;;6.43;;
18883;SDS011;9574;47.282;9.640;2023-01-26T03:06:07;16.40;;;6.07;;
18883;SDS011;9574;47.282;9.640;2023-01-26T03:08:35;12.27;;;6.10;;
18883;SDS011;9574;47.282;9.640;2023-01-26T03:11:02;12.40;;;5.30;;
18883;SDS011;9574;47.282;9.640;2023-01-26T03:13:30;11.67;;;4.80;;
18883;SDS011;9574;47.282;9.640;2023-01-26T03:15:58;14.90;;;5.90;;
18883;SDS011;9574;47.282;9.640;2023-01-26T03:18:31;11.33;;;5.87;;
18883;SDS011;9574;47.282;9.640;2023-01-26T03:21:17;14.87;;;5.80;;
18883;SDS011;9574;47.282;9.640;2023-01-26T03:24:02;16.23;;;5.60;;
18883;SDS011;9574;47.282;9.640;2023-01-26T03:26:47;15.20;;;5.80;;
18883;SDS011;9574;47.282;9.640;2023-01-26T03:29:32;14.57;;;5.77;;
18883;SDS011;9574;47.282;9.640;2023-01-26T03:32:01;14.40;;;5.70;;
18883;SDS011;9574;47.282;9.640;2023-01-26T03:34:28;12.97;;;5.93;;
18883;SDS011;9574;47.282;9.640;2023-01-26T03:36:55;11.23;;;5.47;;
18883;SDS011;9574;47.282;9.640;2023-01-26T03:39:22;14.93;;;6.30;;
18883;SDS011;9574;47.282;9.640;2023-01-26T03:42:06;11.80;;;5.03;;
18883;SDS011;9574;47.282;9.640;2023-01-26T03:44:51;16.80;;;5.40;;
18883;SDS011;9574;47.282;9.640;2023-01-26T03:47:37;10.73;;;4.63;;
18883;SDS011;9574;47.282;9.640;2023-01-26T03:50:21;15.53;;;6.83;;
18883;SDS011;9574;47.282;9.640;2023-01-26T03:53:12;15.43;;;5.80;;
18883;SDS011;9574;47.282;9.640;2023-01-26T03:55:57;13.93;;;6.90;;
18883;SDS011;9574;47.282;9.640;2023-01-26T03:58:42;13.23;;;5.47;;
18883;SDS011;9574;47.282;9.640;2023-01-26T04:01:09;15.60;;;5.80;;
18883;SDS011;9574;47.282;9.640;2023-01-26T04:03:45;15.87;;;6.83;;
18883;SDS011;9574;47.282;9.640;2023-01-26T04:06:30;18.67;;;7.67;;
18883;SDS011;9574;47.282;9.640;2023-01-26T04:09:15;21.17;;;8.33;;
18883;SDS011;9574;47.282;9.640;2023-01-26T04:11:42;14.30;;;6.60;;
18883;SDS011;9574;47.282;9.640;2023-01-26T04:14:10;12.10;;;5.23;;
18883;SDS011;9574;47.282;9.640;2023-01-26T04:16:55;13.63;;;6.13;;
18883;SDS011;9574;47.282;9.640;2023-01-26T04:19:41;14.67;;;6.23;;
18883;SDS011;9574;47.282;9.640;2023-01-26T04:22:25;17.67;;;7.23;;
18883;SDS011;9574;47.282;9.640;2023-01-26T04:24:53;16.27;;;7.93;;
18883;SDS011;9574;47.282;9.640;2023-01-26T04:27:21;18.17;;;8.03;;
18883;SDS011;9574;47.282;9.640;2023-01-26T04:29:48;22.47;;;8.53;;
18883;SDS011;9574;47.282;9.640;2023-01-26T04:32:15;22.03;;;9.63;;
18883;SDS011;9574;47.282;9.640;2023-01-26T04:34:43;19.97;;;9.20;;
18883;SDS011;9574;47.282;9.640;2023-01-26T04:37:10;23.80;;;9.47;;
18883;SDS011;9574;47.282;9.640;2023-01-26T04:39:37;17.47;;;7.47;;
18883;SDS011;9574;47.282;9.640;2023-01-26T04:42:04;21.23;;;8.23;;
18883;SDS011;9574;47.282;9.640;2023-01-26T04:44:31;18.53;;;8.07;;
18883;SDS011;9574;47.282;9.640;2023-01-26T04:46:58;20.97;;;7.27;;
18883;SDS011;9574;47.282;9.640;2023-01-26T04:49:25;17.37;;;7.73;;
18883;SDS011;9574;47.282;9.640;2023-01-26T04:51:53;18.10;;;7.43;;
18883;SDS011;9574;47.282;9.640;2023-01-26T04:54:20;19.67;;;7.77;;
18883;SDS011;9574;47.282;9.640;2023-01-26T04:56:47;18.33;;;7.90;;
18883;SDS011;9574;47.282;9.640;2023-01-26T04:59:15;19.47;;;8.40;;
18883;SDS011;9574;47.282;9.640;2023-01-26T05:01:43;18.57;;;7.30;;
18883;SDS011;9574;47.282;9.640;2023-01-26T05:04:10;22.30;;;7.73;;
18883;SDS011;9574;47.282;9.640;2023-01-26T05:06:37;18.37;;;8.03;;
18883;SDS011;9574;47.282;9.640;2023-01-26T05:09:07;20.33;;;8.83;;
18883;SDS011;9574;47.282;9.640;2023-01-26T05:11:34;18.67;;;8.80;;
18883;SDS011;9574;47.282;9.640;2023-01-26T05:14:01;18.53;;;8.07;;
18883;SDS011;9574;47.282;9.640;2023-01-26T05:16:29;20.27;;;8.60;;
18883;SDS011;9574;47.282;9.640;2023-01-26T05:18:55;22.10;;;7.37;;
18883;SDS011;9574;47.282;9.640;2023-01-26T05:21:23;18.97;;;7.87;;
18883;SDS011;9574;47.282;9.640;2023-01-26T05:23:51;17.17;;;7.33;;
18883;SDS011;9574;47.282;9.640;2023-01-26T05:26:20;20.03;;;8.13;;
18883;SDS011;9574;47.282;9.640;2023-01-26T05:28:47;18.77;;;7.57;;
18883;SDS011;9574;47.282;9.640;2023-01-26T05:31:14;20.47;;;8.57;;
18883;SDS011;9574;47.282;9.640;2023-01-26T05:33:41;19.93;;;7.40;;
18883;SDS011;9574;47.282;9.640;2023-01-26T05:36:08;20.93;;;8.80;;
18883;SDS011;9574;47.282;9.640;2023-01-26T05:38:35;19.13;;;7.70;;
18883;SDS011;9574;47.282;9.640;2023-01-26T05:41:02;17.30;;;7.37;;
18883;SDS011;9574;47.282;9.640;2023-01-26T05:43:33;17.97;;;7.37;;
18883;SDS011;9574;47.282;9.640;2023-01-26T05:46:00;16.63;;;7.90;;
18883;SDS011;9574;47.282;9.640;2023-01-26T05:48:26;15.47;;;7.43;;
18883;SDS011;9574;47.282;9.640;2023-01-26T05:50:54;20.43;;;7.57;;
18883;SDS011;9574;47.282;9.640;2023-01-26T05:53:22;18.13;;;7.93;;
18883;SDS011;9574;47.282;9.640;2023-01-26T05:55:49;20.33;;;8.03;;
18883;SDS011;9574;47.282;9.640;2023-01-26T05:58:16;17.57;;;7.50;;
18883;SDS011;9574;47.282;9.640;2023-01-26T06:00:45;20.00;;;7.67;;
18883;SDS011;9574;47.282;9.640;2023-01-26T06:03:12;19.47;;;7.93;;
18883;SDS011;9574;47.282;9.640;2023-01-26T06:05:39;18.50;;;8.00;;
18883;SDS011;9574;47.282;9.640;2023-01-26T06:08:06;21.33;;;8.23;;
18883;SDS011;9574;47.282;9.640;2023-01-26T06:10:33;16.70;;;7.33;;
18883;SDS011;9574;47.282;9.640;2023-01-26T06:13:00;18.13;;;9.57;;
18883;SDS011;9574;47.282;9.640;2023-01-26T06:15:27;18.80;;;8.77;;
18883;SDS011;9574;47.282;9.640;2023-01-26T06:17:55;24.87;;;8.23;;
18883;SDS011;9574;47.282;9.640;2023-01-26T06:20:22;21.83;;;8.30;;
18883;SDS011;9574;47.282;9.640;2023-01-26T06:22:49;19.90;;;8.97;;
18883;SDS011;9574;47.282;9.640;2023-01-26T06:25:16;19.17;;;8.00;;
18883;SDS011;9574;47.282;9.640;2023-01-26T06:27:43;18.40;;;8.30;;
18883;SDS011;9574;47.282;9.640;2023-01-26T06:30:10;21.27;;;7.90;;
18883;SDS011;9574;47.282;9.640;2023-01-26T06:32:38;18.63;;;7.70;;
18883;SDS011;9574;47.282;9.640;2023-01-26T06:35:07;18.87;;;8.13;;
18883;SDS011;9574;47.282;9.640;2023-01-26T06:37:34;17.27;;;7.67;;
18883;SDS011;9574;47.282;9.640;2023-01-26T06:40:01;13.20;;;6.37;;
18883;SDS011;9574;47.282;9.640;2023-01-26T06:42:28;15.93;;;6.40;;
18883;SDS011;9574;47.282;9.640;2023-01-26T06:44:55;13.50;;;5.90;;
18883;SDS011;9574;47.282;9.640;2023-01-26T06:47:23;12.43;;;5.40;;
18883;SDS011;9574;47.282;9.640;2023-01-26T06:49:50;12.57;;;5.63;;
18883;SDS011;9574;47.282;9.640;2023-01-26T06:52:29;13.83;;;5.30;;
18883;SDS011;9574;47.282;9.640;2023-01-26T06:54:57;15.70;;;6.10;;
18883;SDS011;9574;47.282;9.640;2023-01-26T06:57:25;12.73;;;5.67;;
18883;SDS011;9574;47.282;9.640;2023-01-26T06:59:52;18.47;;;7.30;;
18883;SDS011;9574;47.282;9.640;2023-01-26T07:02:21;11.33;;;6.20;;
18883;SDS011;9574;47.282;9.640;2023-01-26T07:04:48;12.47;;;5.23;;
18883;SDS011;9574;47.282;9.640;2023-01-26T07:07:16;14.23;;;6.27;;
18883;SDS011;9574;47.282;9.640;2023-01-26T07:09:44;14.27;;;5.60;;
18883;SDS011;9574;47.282;9.640;2023-01-26T07:12:11;17.13;;;6.23;;
18883;SDS011;9574;47.282;9.640;2023-01-26T07:14:38;14.13;;;6.67;;
18883;SDS011;9574;47.282;9.640;2023-01-26T07:17:05;18.13;;;6.97;;
18883;SDS011;9574;47.282;9.640;2023-01-26T07:19:32;21.10;;;7.63;;
18883;SDS011;9574;47.282;9.640;2023-01-26T07:21:59;17.43;;;7.43;;
18883;SDS011;9574;47.282;9.640;2023-01-26T07:24:26;19.47;;;7.40;;
18883;SDS011;9574;47.282;9.640;2023-01-26T07:26:55;20.50;;;7.87;;
18883;SDS011;9574;47.282;9.640;2023-01-26T07:29:23;15.97;;;7.17;;
18883;SDS011;9574;47.282;9.640;2023-01-26T07:31:50;17.33;;;7.50;;
18883;SDS011;9574;47.282;9.640;2023-01-26T07:34:18;12.23;;;6.47;;
18883;SDS011;9574;47.282;9.640;2023-01-26T07:36:45;11.70;;;4.87;;
18883;SDS011;9574;47.282;9.640;2023-01-26T07:39:12;12.90;;;5.60;;
18883;SDS011;9574;47.282;9.640;2023-01-26T07:41:39;13.77;;;5.73;;
18883;SDS011;9574;47.282;9.640;2023-01-26T07:44:09;12.93;;;5.40;;
18883;SDS011;9574;47.282;9.640;2023-01-26T07:46:36;11.97;;;5.43;;
18883;SDS011;9574;47.282;9.640;2023-01-26T07:49:04;14.43;;;5.63;;
18883;SDS011;9574;47.282;9.640;2023-01-26T07:51:31;12.30;;;5.33;;
18883;SDS011;9574;47.282;9.640;2023-01-26T07:53:58;12.30;;;5.23;;
18883;SDS011;9574;47.282;9.640;2023-01-26T07:56:26;11.17;;;5.13;;
18883;SDS011;9574;47.282;9.640;2023-01-26T07:58:53;12.53;;;5.57;;
18883;SDS011;9574;47.282;9.640;2023-01-26T08:01:22;7.83;;;4.10;;
18883;SDS011;9574;47.282;9.640;2023-01-26T08:03:49;10.10;;;4.97;;
18883;SDS011;9574;47.282;9.640;2023-01-26T08:06:18;12.40;;;5.80;;
18883;SDS011;9574;47.282;9.640;2023-01-26T08:08:45;12.07;;;5.30;;
18883;SDS011;9574;47.282;9.640;2023-01-26T08:11:15;11.87;;;4.80;;
18883;SDS011;9574;47.282;9.640;2023-01-26T08:13:43;10.90;;;5.03;;
18883;SDS011;9574;47.282;9.640;2023-01-26T08:16:10;10.07;;;3.90;;
18883;SDS011;9574;47.282;9.640;2023-01-26T08:18:38;11.57;;;4.73;;
18883;SDS011;9574;47.282;9.640;2023-01-26T08:21:07;11.70;;;5.63;;
18883;SDS011;9574;47.282;9.640;2023-01-26T08:23:34;10.77;;;5.67;;
18883;SDS011;9574;47.282;9.640;2023-01-26T08:26:02;15.90;;;6.43;;
18883;SDS011;9574;47.282;9.640;2023-01-26T08:28:29;11.83;;;6.27;;
18883;SDS011;9574;47.282;9.640;2023-01-26T08:31:01;11.57;;;5.13;;
18883;SDS011;9574;47.282;9.640;2023-01-26T08:33:29;14.10;;;5.77;;
18883;SDS011;9574;47.282;9.640;2023-01-26T08:36:00;12.37;;;5.43;;
18883;SDS011;9574;47.282;9.640;2023-01-26T08:38:28;13.50;;;5.97;;
18883;SDS011;9574;47.282;9.640;2023-01-26T08:40:56;10.77;;;5.90;;
18883;SDS011;9574;47.282;9.640;2023-01-26T08:43:23;14.10;;;5.90;;
18883;SDS011;9574;47.282;9.640;2023-01-26T08:45:50;13.10;;;5.77;;
18883;SDS011;9574;47.282;9.640;2023-01-26T08:48:17;12.20;;;5.47;;
18883;SDS011;9574;47.282;9.640;2023-01-26T08:50:44;12.73;;;5.27;;
18883;SDS011;9574;47.282;9.640;2023-01-26T08:53:13;13.27;;;5.93;;
18883;SDS011;9574;47.282;9.640;2023-01-26T08:55:40;9.93;;;4.37;;
18883;SDS011;9574;47.282;9.640;2023-01-26T08:58:07;10.83;;;4.83;;
18883;SDS011;9574;47.282;9.640;2023-01-26T09:00:34;9.63;;;4.90;;
18883;SDS011;9574;47.282;9.640;2023-01-26T09:03:01;12.03;;;4.93;;
18883;SDS011;9574;47.282;9.640;2023-01-26T09:05:30;16.13;;;6.13;;
18883;SDS011;9574;47.282;9.640;2023-01-26T09:07:58;13.83;;;6.90;;
18883;SDS011;9574;47.282;9.640;2023-01-26T09:10:26;18.67;;;5.80;;
18883;SDS011;9574;47.282;9.640;2023-01-26T09:12:53;13.33;;;5.73;;
18883;SDS011;9574;47.282;9.640;2023-01-26T09:15:22;15.20;;;6.27;;
18883;SDS011;9574;47.282;9.640;2023-01-26T09:17:49;17.00;;;6.43;;
18883;SDS011;9574;47.282;9.640;2023-01-26T09:20:16;15.07;;;6.77;;
18883;SDS011;9574;47.282;9.640;2023-01-26T09:22:44;19.30;;;8.03;;
18883;SDS011;9574;47.282;9.640;2023-01-26T09:25:11;18.50;;;8.00;;
18883;SDS011;9574;47.282;9.640;2023-01-26T09:27:40;22.97;;;8.40;;
18883;SDS011;9574;47.282;9.640;2023-01-26T09:30:09;20.00;;;7.53;;
18883;SDS011;9574;47.282;9.640;2023-01-26T09:32:36;18.67;;;8.23;;
18883;SDS011;9574;47.282;9.640;2023-01-26T09:35:03;11.67;;;6.13;;
18883;SDS011;9574;47.282;9.640;2023-01-26T09:37:35;21.37;;;8.00;;
18883;SDS011;9574;47.282;9.640;2023-01-26T09:40:03;19.27;;;7.63;;
18883;SDS011;9574;47.282;9.640;2023-01-26T09:42:38;18.87;;;7.67;;
18883;SDS011;9574;47.282;9.640;2023-01-26T09:45:23;18.57;;;7.13;;
18883;SDS011;9574;47.282;9.640;2023-01-26T09:50:47;19.77;;;8.10;;
18883;SDS011;9574;47.282;9.640;2023-01-26T09:53:20;15.23;;;6.77;;
18883;SDS011;9574;47.282;9.640;2023-01-26T09:55:50;20.80;;;7.90;;
18883;SDS011;9574;47.282;9.640;2023-01-26T09:58:23;16.90;;;6.33;;
18883;SDS011;9574;47.282;9.640;2023-01-26T10:00:56;14.57;;;6.93;;
18883;SDS011;9574;47.282;9.640;2023-01-26T10:03:27;16.80;;;7.50;;
18883;SDS011;9574;47.282;9.640;2023-01-26T10:06:02;13.47;;;6.40;;
18883;SDS011;9574;47.282;9.640;2023-01-26T10:08:38;14.53;;;6.67;;
18883;SDS011;9574;47.282;9.640;2023-01-26T10:11:10;22.63;;;8.23;;
18883;SDS011;9574;47.282;9.640;2023-01-26T10:13:46;23.73;;;8.10;;
18883;SDS011;9574;47.282;9.640;2023-01-26T10:16:16;17.00;;;6.70;;
18883;SDS011;9574;47.282;9.640;2023-01-26T10:18:46;15.03;;;6.40;;
18883;SDS011;9574;47.282;9.640;2023-01-26T10:21:18;16.23;;;7.17;;
18883;SDS011;9574;47.282;9.640;2023-01-26T10:23:47;16.17;;;7.97;;
18883;SDS011;9574;47.282;9.640;2023-01-26T10:26:16;12.27;;;6.37;;
18883;SDS011;9574;47.282;9.640;2023-01-26T10:28:45;13.53;;;6.07;;
18883;SDS011;9574;47.282;9.640;2023-01-26T10:31:15;16.80;;;7.47;;
18883;SDS011;9574;47.282;9.640;2023-01-26T10:33:47;17.00;;;6.53;;
18883;SDS011;9574;47.282;9.640;2023-01-26T10:36:17;20.13;;;6.63;;
18883;SDS011;9574;47.282;9.640;2023-01-26T10:38:44;22.73;;;8.30;;
18883;SDS011;9574;47.282;9.640;2023-01-26T10:41:21;19.77;;;8.53;;
18883;SDS011;9574;47.282;9.640;2023-01-26T10:43:52;18.03;;;7.87;;
18883;SDS011;9574;47.282;9.640;2023-01-26T10:46:25;19.53;;;6.90;;
18883;SDS011;9574;47.282;9.640;2023-01-26T10:48:54;17.40;;;7.57;;
18883;SDS011;9574;47.282;9.640;2023-01-26T10:51:24;17.53;;;6.97;;
18883;SDS011;9574;47.282;9.640;2023-01-26T10:54:13;16.80;;;6.90;;
18883;SDS011;9574;47.282;9.640;2023-01-26T10:56:44;17.83;;;7.13;;
18883;SDS011;9574;47.282;9.640;2023-01-26T10:59:15;14.97;;;6.73;;
18883;SDS011;9574;47.282;9.640;2023-01-26T11:01:55;12.93;;;6.07;;
18883;SDS011;9574;47.282;9.640;2023-01-26T11:04:23;17.70;;;7.13;;
18883;SDS011;9574;47.282;9.640;2023-01-26T11:06:51;19.83;;;7.17;;
18883;SDS011;9574;47.282;9.640;2023-01-26T11:09:19;17.53;;;7.77;;
18883;SDS011;9574;47.282;9.640;2023-01-26T11:11:56;19.23;;;7.97;;
18883;SDS011;9574;47.282;9.640;2023-01-26T11:14:28;17.70;;;7.77;;
18883;SDS011;9574;47.282;9.640;2023-01-26T11:16:58;18.20;;;7.13;;
18883;SDS011;9574;47.282;9.640;2023-01-26T11:19:35;16.03;;;6.90;;
18883;SDS011;9574;47.282;9.640;2023-01-26T11:22:20;16.77;;;7.77;;
18883;SDS011;9574;47.282;9.640;2023-01-26T11:24:50;15.33;;;6.97;;
18883;SDS011;9574;47.282;9.640;2023-01-26T11:27:26;21.67;;;7.50;;
18883;SDS011;9574;47.282;9.640;2023-01-26T11:30:08;14.13;;;5.97;;
18883;SDS011;9574;47.282;9.640;2023-01-26T11:33:02;14.83;;;6.10;;
18883;SDS011;9574;47.282;9.640;2023-01-26T11:35:42;16.27;;;6.47;;
18883;SDS011;9574;47.282;9.640;2023-01-26T11:38:26;15.67;;;6.37;;
18883;SDS011;9574;47.282;9.640;2023-01-26T11:44:09;14.23;;;6.60;;
18883;SDS011;9574;47.282;9.640;2023-01-26T11:47:06;17.53;;;7.37;;
18883;SDS011;9574;47.282;9.640;2023-01-26T11:49:50;13.33;;;5.80;;
18883;SDS011;9574;47.282;9.640;2023-01-26T11:52:30;15.20;;;6.33;;
18883;SDS011;9574;47.282;9.640;2023-01-26T11:55:13;16.07;;;6.03;;
18883;SDS011;9574;47.282;9.640;2023-01-26T11:57:50;15.13;;;6.53;;
18883;SDS011;9574;47.282;9.640;2023-01-26T12:00:32;14.37;;;5.17;;
18883;SDS011;9574;47.282;9.640;2023-01-26T12:03:12;14.03;;;5.97;;
18883;SDS011;9574;47.282;9.640;2023-01-26T12:05:45;11.53;;;5.73;;
18883;SDS011;9574;47.282;9.640;2023-01-26T12:08:16;16.17;;;6.40;;
18883;SDS011;9574;47.282;9.640;2023-01-26T12:10:49;14.60;;;6.77;;
18883;SDS011;9574;47.282;9.640;2023-01-26T12:13:45;14.30;;;6.47;;
18883;SDS011;9574;47.282;9.640;2023-01-26T12:16:17;16.47;;;6.80;;
18883;SDS011;9574;47.282;9.640;2023-01-26T12:18:53;18.80;;;7.20;;
18883;SDS011;9574;47.282;9.640;2023-01-26T12:21:29;15.80;;;6.53;;
18883;SDS011;9574;47.282;9.640;2023-01-26T12:24:00;15.53;;;7.13;;
18883;SDS011;9574;47.282;9.640;2023-01-26T12:26:31;12.90;;;7.33;;
18883;SDS011;9574;47.282;9.640;2023-01-26T12:29:01;19.80;;;8.50;;
18883;SDS011;9574;47.282;9.640;2023-01-26T12:31:34;21.07;;;7.97;;
18883;SDS011;9574;47.282;9.640;2023-01-26T12:34:08;19.13;;;8.27;;
18883;SDS011;9574;47.282;9.640;2023-01-26T12:36:40;17.40;;;7.93;;
18883;SDS011;9574;47.282;9.640;2023-01-26T12:39:13;16.30;;;8.10;;
18883;SDS011;9574;47.282;9.640;2023-01-26T12:41:57;19.63;;;8.77;;
18883;SDS011;9574;47.282;9.640;2023-01-26T12:44:30;15.67;;;7.37;;
18883;SDS011;9574;47.282;9.640;2023-01-26T12:47:04;16.17;;;8.00;;
18883;SDS011;9574;47.282;9.640;2023-01-26T12:49:39;19.70;;;8.53;;
18883;SDS011;9574;47.282;9.640;2023-01-26T12:52:15;22.67;;;9.03;;
18883;SDS011;9574;47.282;9.640;2023-01-26T12:54:48;24.93;;;9.13;;
18883;SDS011;9574;47.282;9.640;2023-01-26T12:57:23;21.40;;;9.20;;
18883;SDS011;9574;47.282;9.640;2023-01-26T13:00:00;19.47;;;8.37;;
18883;SDS011;9574;47.282;9.640;2023-01-26T13:02:32;18.90;;;8.07;;
18883;SDS011;9574;47.282;9.640;2023-01-26T13:05:03;24.77;;;9.77;;
18883;SDS011;9574;47.282;9.640;2023-01-26T13:07:33;23.40;;;10.47;;
18883;SDS011;9574;47.282;9.640;2023-01-26T13:12:51;17.10;;;7.80;;
18883;SDS011;9574;47.282;9.640;2023-01-26T13:15:20;18.33;;;8.40;;
18883;SDS011;9574;47.282;9.640;2023-01-26T13:17:49;22.20;;;8.60;;
18883;SDS011;9574;47.282;9.640;2023-01-26T13:20:23;19.70;;;8.50;;
18883;SDS011;9574;47.282;9.640;2023-01-26T13:22:53;19.60;;;8.90;;
18883;SDS011;9574;47.282;9.640;2023-01-26T13:25:24;19.93;;;8.63;;
18883;SDS011;9574;47.282;9.640;2023-01-26T13:27:57;23.83;;;8.63;;
18883;SDS011;9574;47.282;9.640;2023-01-26T13:30:31;16.27;;;7.27;;
18883;SDS011;9574;47.282;9.640;2023-01-26T13:33:08;17.60;;;7.97;;
18883;SDS011;9574;47.282;9.640;2023-01-26T13:35:40;18.70;;;8.03;;
18883;SDS011;9574;47.282;9.640;2023-01-26T13:38:11;20.10;;;8.40;;
18883;SDS011;9574;47.282;9.640;2023-01-26T13:40:44;19.77;;;8.60;;
18883;SDS011;9574;47.282;9.640;2023-01-26T13:43:14;17.63;;;8.87;;
18883;SDS011;9574;47.282;9.640;2023-01-26T13:45:50;22.50;;;9.77;;
18883;SDS011;9574;47.282;9.640;2023-01-26T13:48:35;23.70;;;10.03;;
18883;SDS011;9574;47.282;9.640;2023-01-26T13:51:11;18.23;;;8.83;;
18883;SDS011;9574;47.282;9.640;2023-01-26T13:53:41;23.17;;;9.77;;
18883;SDS011;9574;47.282;9.640;2023-01-26T13:56:19;21.10;;;9.33;;
18883;SDS011;9574;47.282;9.640;2023-01-26T13:58:52;16.77;;;8.57;;
18883;SDS011;9574;47.282;9.640;2023-01-26T14:01:19;17.70;;;8.10;;
18883;SDS011;9574;47.282;9.640;2023-01-26T14:03:46;23.57;;;10.50;;
18883;SDS011;9574;47.282;9.640;2023-01-26T14:06:15;22.47;;;9.90;;
18883;SDS011;9574;47.282;9.640;2023-01-26T14:08:48;22.47;;;9.37;;
18883;SDS011;9574;47.282;9.640;2023-01-26T14:11:18;16.47;;;8.00;;
18883;SDS011;9574;47.282;9.640;2023-01-26T14:13:47;24.20;;;9.40;;
18883;SDS011;9574;47.282;9.640;2023-01-26T14:16:20;21.20;;;8.57;;
18883;SDS011;9574;47.282;9.640;2023-01-26T14:18:49;23.40;;;9.47;;
18883;SDS011;9574;47.282;9.640;2023-01-26T14:21:19;27.10;;;10.53;;
18883;SDS011;9574;47.282;9.640;2023-01-26T14:23:53;20.57;;;8.60;;
18883;SDS011;9574;47.282;9.640;2023-01-26T14:26:23;25.33;;;8.80;;
18883;SDS011;9574;47.282;9.640;2023-01-26T14:28:55;19.27;;;8.47;;
18883;SDS011;9574;47.282;9.640;2023-01-26T14:31:24;26.10;;;10.47;;
18883;SDS011;9574;47.282;9.640;2023-01-26T14:33:53;23.90;;;9.33;;
18883;SDS011;9574;47.282;9.640;2023-01-26T14:36:25;27.30;;;9.40;;
18883;SDS011;9574;47.282;9.640;2023-01-26T14:38:53;20.77;;;8.33;;
18883;SDS011;9574;47.282;9.640;2023-01-26T14:41:22;22.37;;;9.10;;
18883;SDS011;9574;47.282;9.640;2023-01-26T14:43:50;17.37;;;7.90;;
18883;SDS011;9574;47.282;9.640;2023-01-26T14:46:20;23.30;;;8.93;;
18883;SDS011;9574;47.282;9.640;2023-01-26T14:48:51;22.20;;;10.07;;
18883;SDS011;9574;47.282;9.640;2023-01-26T14:51:25;26.03;;;10.10;;
18883;SDS011;9574;47.282;9.640;2023-01-26T14:53:54;23.93;;;10.33;;
18883;SDS011;9574;47.282;9.640;2023-01-26T14:56:26;24.43;;;10.90;;
18883;SDS011;9574;47.282;9.640;2023-01-26T14:58:58;22.60;;;10.30;;
18883;SDS011;9574;47.282;9.640;2023-01-26T15:01:26;23.27;;;10.57;;
18883;SDS011;9574;47.282;9.640;2023-01-26T15:03:58;24.57;;;10.20;;
18883;SDS011;9574;47.282;9.640;2023-01-26T15:06:29;22.97;;;8.93;;
18883;SDS011;9574;47.282;9.640;2023-01-26T15:08:58;19.37;;;9.20;;
18883;SDS011;9574;47.282;9.640;2023-01-26T15:11:27;25.00;;;9.53;;
18883;SDS011;9574;47.282;9.640;2023-01-26T15:14:29;23.23;;;9.30;;
18883;SDS011;9574;47.282;9.640;2023-01-26T15:16:58;20.10;;;9.43;;
18883;SDS011;9574;47.282;9.640;2023-01-26T15:19:37;21.77;;;8.20;;